Gerald R. Ford International Airport
KGRR : rendu visible

Aérodrome :











RETROUVEZ-NOUS SUR...

 
LOGIN :

S'inscrire | Disclaimer

   EN    FR    IT 

 









Légende :    VFR   VFR Marginal   IFR   IFR Intensif   IFR Très Intensif
Visi : 
Plafond : 
>= 8 km
>= 3000ft
5 à 8 km
1000 à 3000 ft
1500m à 5 km
500 à 1000 ft
800 à 1500m
200 à 500 ft
< 800m
< 200 ft
Symboles :   Orages  Brouillard  Fortes neiges  Fortes précipitations  Vent > 20 kt







- Altitude de l'aérodrome : 794 ft
- Code IATA : GRR


KGRR - Gerald R. Ford International

DERNIER METAR :
  • 220943Z 20012KT 3SM -RA BR SCT030 OVC038 21/19 A2999 RMK AO2 P0013 T02060189

METARs EXPIRÉS :
  • 220935Z AUTO 21010G20KT 1 3/4SM +RA BR FEW013 BKN033 OVC041 21/19 A2999 RMK AO2 P0006 T02060189
  • 220853Z AUTO 21010KT 7SM -RA SCT016 BKN044 OVC090 21/18 A3000 RMK AO2 RAE09B42 CIG 030 RWY 8R SLP153 P0000 60053 T02110183 56010
  • 220753Z AUTO 20013G21KT 7SM -RA OVC036 21/19 A3001 RMK AO2 RAB0655 SLP155 P0050 T02110189
  • 220734Z AUTO 21014G22KT 3SM -RA BR FEW027 OVC036 21/19 A3001 RMK AO2 RAB0655 P0046 T02060189
  • 220703Z AUTO 24015G20KT 1 3/4SM +RA FEW029 OVC039 22/19 A3002 RMK AO2 VIS 3/4V5 RAB0655 P0001 T02170189
  • 220653Z AUTO 21006KT 10SM BKN038 OVC047 22/19 A3001 RMK AO2 RAB0554E48 SLP158 P0003 T02170189

TAF KGRR
Valide du 22 à 08h jusqu'au 23 à 06h UTC


220806Z 2208/2306 20013G21KT P6SM -RA OVC035
FM221000 20012KT 5SM -SHRA BR OVC030
TEMPO 2210/2213 1SM SHRA BR OVC015
FM221300 21013G23KT 2SM -SHRA BR OVC015
FM221800 22015G25KT 2SM RA BR OVC012
FM230000 21013G23KT 2SM RA BR VCTS OVC012CB
Pas de NOTAMs connus pour ce terrain.



MET'MAP, la Météo Aéronautique d'un coup d'oeil ! - Copyright ORBIFLY Décembre 2007 - Disclaimer

ORBIFLY MET'MAP TEAM :

Programmation & Développement : Alexandra Zaïnal
Conception & Développement : Baudouin d'Aumeries
Co-Programmation & Développement : Marc-Olivier Méhu
Soutien technique & logistique : Manuel Goepfert

Contact : metmap@orbifly.com




SOURCES & CREDITS :

   NOAA       Earth
Advisory